createdAt,value
2023-04-17T00:00:21.927Z,79.81
2023-04-17T00:00:54.156Z,79.99
2023-04-17T00:01:26.745Z,80.12
2023-04-17T00:02:00.768Z,80.34
2023-04-17T00:02:40.124Z,79.87
2023-04-17T00:03:12.770Z,79.98
2023-04-17T00:03:45.208Z,80.19
2023-04-17T00:04:22.602Z,79.92
2023-04-17T00:04:55.547Z,79.93
2023-04-17T00:05:28.177Z,80.20
2023-04-17T00:06:03.732Z,80.33
2023-04-17T00:06:35.960Z,80.32
2023-04-17T00:07:08.151Z,80.14
2023-04-17T00:07:41.453Z,80.44
2023-04-17T00:08:16.452Z,80.21
2023-04-17T00:08:48.670Z,80.23
2023-04-17T00:09:23.399Z,80.39
2023-04-17T00:09:58.312Z,80.13
2023-04-17T00:10:30.619Z,80.06
2023-04-17T00:11:08.087Z,80.24
2023-04-17T00:11:43.846Z,79.90
2023-04-17T00:12:16.275Z,80.06
2023-04-17T00:12:48.457Z,79.99
2023-04-17T00:13:23.286Z,80.17
2023-04-17T00:13:55.566Z,80.07
2023-04-17T00:14:27.787Z,80.01
2023-04-17T00:15:02.618Z,80.34
2023-04-17T00:15:34.878Z,80.18
2023-04-17T00:16:10.810Z,80.48
2023-04-17T00:16:45.690Z,80.17
2023-04-17T00:17:17.983Z,80.39
2023-04-17T00:17:50.218Z,80.59
2023-04-17T00:18:22.430Z,80.56
2023-04-17T00:18:57.615Z,80.54
2023-04-17T00:19:29.848Z,80.14
2023-04-17T00:20:02.094Z,80.70
2023-04-17T00:20:36.857Z,80.34
2023-04-17T00:21:09.193Z,80.71
2023-04-17T00:21:41.517Z,80.38
2023-04-17T00:22:16.328Z,80.76
2023-04-17T00:22:48.541Z,80.81
2023-04-17T00:23:20.862Z,80.72
2023-04-17T00:23:55.723Z,80.54
2023-04-17T00:24:30.734Z,80.69
2023-04-17T00:25:02.972Z,80.66
2023-04-17T00:25:37.862Z,80.59
2023-04-17T00:26:10.044Z,80.91
2023-04-17T00:26:43.353Z,80.63
2023-04-17T00:27:18.286Z,80.43
2023-04-17T00:27:51.097Z,80.51
2023-04-17T00:28:24.045Z,80.71
2023-04-17T00:28:58.816Z,80.43
2023-04-17T00:29:32.904Z,80.68
2023-04-17T00:30:07.018Z,80.72
2023-04-17T00:30:41.877Z,80.43
2023-04-17T00:31:14.094Z,80.88
2023-04-17T00:31:46.401Z,80.75
2023-04-17T00:32:21.195Z,81.00
2023-04-17T00:32:53.465Z,80.91
2023-04-17T00:33:25.888Z,80.56
2023-04-17T00:34:01.786Z,80.95
2023-04-17T00:34:33.995Z,80.56
2023-04-17T00:35:07.442Z,80.88
2023-04-17T00:35:42.678Z,80.70
2023-04-17T00:36:15.648Z,80.58
2023-04-17T00:36:47.828Z,80.82
2023-04-17T00:37:22.808Z,80.60
2023-04-17T00:37:55.101Z,80.70
2023-04-17T00:38:27.518Z,80.75
2023-04-17T00:39:02.369Z,80.65
2023-04-17T00:39:37.132Z,80.73
2023-04-17T00:40:10.875Z,80.57
2023-04-17T00:40:46.447Z,80.69
2023-04-17T00:41:18.708Z,80.48
2023-04-17T00:41:51.226Z,80.57
2023-04-17T00:42:26.071Z,80.94
2023-04-17T00:43:00.898Z,80.74
2023-04-17T00:43:33.162Z,80.51
2023-04-17T00:44:05.572Z,80.45
2023-04-17T00:44:40.459Z,80.82
2023-04-17T00:45:12.790Z,80.35
2023-04-17T00:45:47.072Z,80.48
2023-04-17T00:46:22.059Z,80.87
2023-04-17T00:46:54.542Z,80.36
2023-04-17T00:47:26.836Z,80.30
2023-04-17T00:48:03.582Z,80.76
2023-04-17T00:48:37.767Z,80.82
2023-04-17T00:49:11.383Z,80.57
2023-04-17T00:49:47.169Z,80.69
2023-04-17T00:50:19.607Z,80.47
2023-04-17T00:50:54.056Z,80.37
2023-04-17T00:51:29.252Z,80.35
2023-04-17T00:52:01.950Z,80.57
2023-04-17T00:52:34.408Z,80.63
2023-04-17T00:53:09.724Z,80.29
2023-04-17T00:53:42.428Z,80.27
2023-04-17T00:54:15.136Z,80.49
2023-04-17T00:54:52.670Z,80.22
2023-04-17T00:55:25.831Z,80.48
2023-04-17T00:55:58.885Z,80.45
2023-04-17T00:56:33.828Z,80.53
2023-04-17T00:57:06.628Z,80.73
2023-04-17T00:57:39.006Z,80.73
2023-04-17T00:58:14.576Z,80.46
2023-04-17T00:58:47.015Z,80.27
2023-04-17T00:59:19.451Z,80.64
2023-04-17T00:59:54.751Z,80.17
2023-04-17T01:00:27.280Z,80.54
2023-04-17T01:01:00.292Z,80.30
2023-04-17T01:01:35.191Z,80.46
2023-04-17T01:02:07.749Z,80.43
2023-04-17T01:02:40.212Z,80.40
2023-04-17T01:03:17.294Z,80.53
2023-04-17T01:03:51.293Z,80.51
2023-04-17T01:04:24.159Z,80.60
2023-04-17T01:04:59.207Z,80.65
2023-04-17T01:05:31.681Z,80.42
2023-04-17T01:06:04.043Z,80.36
2023-04-17T01:06:39.384Z,80.26
2023-04-17T01:07:11.756Z,80.16
2023-04-17T01:07:45.596Z,80.75
2023-04-17T01:08:20.545Z,80.58
2023-04-17T01:08:54.194Z,80.42
2023-04-17T01:09:26.513Z,80.36
2023-04-17T01:10:04.079Z,80.25
2023-04-17T01:10:36.664Z,80.42
2023-04-17T01:11:09.066Z,80.63
2023-04-17T01:11:43.970Z,80.23
2023-04-17T01:12:17.847Z,80.37
2023-04-17T01:13:02.212Z,80.52
2023-04-17T01:13:37.104Z,80.50
2023-04-17T01:14:09.360Z,80.95
2023-04-17T01:14:41.679Z,81.02
2023-04-17T01:15:16.587Z,80.45
2023-04-17T01:15:48.888Z,80.56
2023-04-17T01:16:21.215Z,80.77
2023-04-17T01:16:57.323Z,80.84
2023-04-17T01:17:29.627Z,80.47
2023-04-17T01:18:02.206Z,80.83
2023-04-17T01:18:37.048Z,80.57
2023-04-17T01:19:09.531Z,80.88
2023-04-17T01:19:42.307Z,80.87
2023-04-17T01:20:17.294Z,80.87
2023-04-17T01:20:49.546Z,80.84
2023-04-17T01:21:22.383Z,80.27
2023-04-17T01:21:57.854Z,80.30
2023-04-17T01:22:30.072Z,80.70
2023-04-17T01:23:03.813Z,80.25
2023-04-17T01:23:52.191Z,80.67
2023-04-17T01:24:27.951Z,80.74
2023-04-17T01:25:00.238Z,80.55
2023-04-17T01:25:38.578Z,80.34
2023-04-17T01:26:18.748Z,80.33
2023-04-17T01:26:51.414Z,80.48
2023-04-17T01:27:23.752Z,80.73
2023-04-17T01:27:58.652Z,80.67
2023-04-17T01:28:32.651Z,80.85
2023-04-17T01:29:05.201Z,80.94
2023-04-17T01:29:40.075Z,80.44
2023-04-17T01:30:14.109Z,80.75
2023-04-17T01:30:52.705Z,80.75
2023-04-17T01:31:29.103Z,80.73
2023-04-17T01:32:01.825Z,80.96
2023-04-17T01:32:34.767Z,80.71
2023-04-17T01:33:09.543Z,80.92
2023-04-17T01:33:42.405Z,80.85
2023-04-17T01:34:14.707Z,80.89
2023-04-17T01:34:49.625Z,80.54
2023-04-17T01:35:22.191Z,80.90
2023-04-17T01:35:55.090Z,80.36
2023-04-17T01:36:30.256Z,80.88
2023-04-17T01:37:02.949Z,80.94
2023-04-17T01:37:35.584Z,80.62
2023-04-17T01:38:10.337Z,80.73
2023-04-17T01:38:42.763Z,80.48
2023-04-17T01:39:15.070Z,80.74
2023-04-17T01:39:52.584Z,80.70
2023-04-17T01:40:24.911Z,80.93
2023-04-17T01:40:57.129Z,81.03
2023-04-17T01:41:29.401Z,80.69
2023-04-17T01:42:04.276Z,81.10
2023-04-17T01:42:36.558Z,81.14
2023-04-17T01:43:08.831Z,81.06
2023-04-17T01:43:46.435Z,80.61
2023-04-17T01:44:18.700Z,80.82
2023-04-17T01:44:51.112Z,80.83
2023-04-17T01:45:26.510Z,80.71
2023-04-17T01:45:58.847Z,80.97
2023-04-17T01:46:31.135Z,80.59
2023-04-17T01:47:06.182Z,80.61
2023-04-17T01:47:38.381Z,80.57
2023-04-17T01:48:10.641Z,80.83
2023-04-17T01:48:42.977Z,80.84
2023-04-17T01:49:18.060Z,80.59
2023-04-17T01:49:50.469Z,80.90
2023-04-17T01:50:22.765Z,80.60
2023-04-17T01:50:54.950Z,80.84
2023-04-17T01:51:29.944Z,81.00
2023-04-17T01:52:02.135Z,80.80
2023-04-17T01:52:34.385Z,80.97
2023-04-17T01:53:09.127Z,80.83
2023-04-17T01:53:42.268Z,80.94
2023-04-17T01:54:15.739Z,80.56
2023-04-17T01:54:53.305Z,80.49
2023-04-17T01:55:25.614Z,80.80
2023-04-17T01:55:57.973Z,80.88
2023-04-17T01:56:32.848Z,80.57
2023-04-17T01:57:05.189Z,80.91
2023-04-17T01:57:37.522Z,81.04
2023-04-17T01:58:12.295Z,81.10
2023-04-17T01:58:44.486Z,80.50
2023-04-17T01:59:16.827Z,80.83
2023-04-17T01:59:51.662Z,80.68
2023-04-17T02:00:24.258Z,80.81
2023-04-17T02:00:56.518Z,80.60
2023-04-17T02:01:28.752Z,80.67
2023-04-17T02:02:03.876Z,81.11
2023-04-17T02:02:36.279Z,81.08
2023-04-17T02:03:08.731Z,80.64
2023-04-17T02:03:44.062Z,80.72
2023-04-17T02:04:16.701Z,80.93
2023-04-17T02:04:48.930Z,80.84
2023-04-17T02:05:24.050Z,80.91
2023-04-17T02:05:56.573Z,81.05
2023-04-17T02:06:28.992Z,80.83
2023-04-17T02:07:03.861Z,80.58
2023-04-17T02:07:36.334Z,80.65
2023-04-17T02:08:08.603Z,80.84
2023-04-17T02:08:43.346Z,80.79
2023-04-17T02:09:15.566Z,80.82
2023-04-17T02:09:50.441Z,81.00
2023-04-17T02:10:25.283Z,80.96
2023-04-17T02:10:57.700Z,80.79
2023-04-17T02:11:30.002Z,80.51
2023-04-17T02:12:04.780Z,80.85
2023-04-17T02:12:36.963Z,81.14
2023-04-17T02:13:09.269Z,81.12
2023-04-17T02:13:44.090Z,80.92
2023-04-17T02:14:18.549Z,80.64
2023-04-17T02:14:50.881Z,81.15
2023-04-17T02:15:25.751Z,81.12
2023-04-17T02:15:58.119Z,81.13
2023-04-17T02:16:37.773Z,80.98
2023-04-17T02:17:10.005Z,80.80
2023-04-17T02:17:42.256Z,80.81
2023-04-17T02:18:16.888Z,81.20
2023-04-17T02:18:52.351Z,80.77
2023-04-17T02:19:24.629Z,81.29
2023-04-17T02:19:56.914Z,81.23
2023-04-17T02:20:31.678Z,80.75
2023-04-17T02:21:04.052Z,81.13
2023-04-17T02:21:36.705Z,81.08
2023-04-17T02:22:12.957Z,81.23
2023-04-17T02:22:45.142Z,80.72
2023-04-17T02:23:17.289Z,80.97
2023-04-17T02:23:52.123Z,81.27
2023-04-17T02:24:24.654Z,81.41
2023-04-17T02:24:59.651Z,81.31
2023-04-17T02:25:34.564Z,81.32
2023-04-17T02:26:06.774Z,80.98
2023-04-17T02:26:39.355Z,81.35
2023-04-17T02:27:11.964Z,81.24
2023-04-17T02:27:46.834Z,81.26
2023-04-17T02:28:19.023Z,81.00
2023-04-17T02:28:51.290Z,81.39
2023-04-17T02:29:26.204Z,81.04
2023-04-17T02:29:58.877Z,81.26
2023-04-17T02:30:31.327Z,81.03
2023-04-17T02:31:10.187Z,81.26
2023-04-17T02:31:42.420Z,81.30
2023-04-17T02:32:17.432Z,81.29
2023-04-17T02:32:53.486Z,81.30
2023-04-17T02:33:26.138Z,81.08
2023-04-17T02:33:58.597Z,81.03
2023-04-17T02:34:33.729Z,81.11
2023-04-17T02:35:08.085Z,81.46
2023-04-17T02:35:41.563Z,81.41
2023-04-17T02:36:16.400Z,81.24
2023-04-17T02:36:50.035Z,81.33
2023-04-17T02:37:23.799Z,81.43
2023-04-17T02:37:59.515Z,81.49
2023-04-17T02:38:33.018Z,81.71
2023-04-17T02:39:05.707Z,81.40
2023-04-17T02:39:37.900Z,81.37
2023-04-17T02:40:15.571Z,81.53
2023-04-17T02:40:47.776Z,81.76
2023-04-17T02:41:19.959Z,81.75
2023-04-17T02:41:55.099Z,81.67
2023-04-17T02:42:27.281Z,81.33
2023-04-17T02:42:59.561Z,81.56
2023-04-17T02:43:34.454Z,81.42
2023-04-17T02:44:06.668Z,81.53
2023-04-17T02:44:38.953Z,81.64
2023-04-17T02:45:14.737Z,81.73
2023-04-17T02:45:47.008Z,81.70
2023-04-17T02:46:19.240Z,81.47
2023-04-17T02:46:54.172Z,81.84
2023-04-17T02:47:26.683Z,81.48
2023-04-17T02:47:59.988Z,81.42
2023-04-17T02:48:35.665Z,81.49
2023-04-17T02:49:07.896Z,81.62
2023-04-17T02:49:42.022Z,81.90
2023-04-17T02:50:14.247Z,81.74
2023-04-17T02:51:00.921Z,81.78
2023-04-17T02:51:34.242Z,82.05
2023-04-17T02:52:06.914Z,81.85
2023-04-17T02:52:40.186Z,81.74
2023-04-17T02:53:15.059Z,81.84
2023-04-17T02:53:49.306Z,82.04
2023-04-17T02:54:21.997Z,82.01
2023-04-17T02:54:57.102Z,81.62
2023-04-17T02:55:32.107Z,81.58
2023-04-17T02:56:07.658Z,82.00
2023-04-17T02:56:40.730Z,82.03
2023-04-17T02:57:13.010Z,81.71
2023-04-17T02:57:47.867Z,81.86
2023-04-17T02:58:20.030Z,81.56
2023-04-17T02:58:55.046Z,81.50
2023-04-17T02:59:27.454Z,81.87
2023-04-17T03:00:01.781Z,81.65
2023-04-17T03:00:38.172Z,81.89
2023-04-17T03:01:11.161Z,81.63
2023-04-17T03:01:47.595Z,82.12
2023-04-17T03:02:25.900Z,82.11
2023-04-17T03:02:58.408Z,81.96
2023-04-17T03:03:35.459Z,82.01
2023-04-17T03:04:13.377Z,81.62
2023-04-17T03:04:45.630Z,82.15
2023-04-17T03:05:20.526Z,82.21
2023-04-17T03:05:55.760Z,82.17
2023-04-17T03:06:28.671Z,82.10
2023-04-17T03:07:00.863Z,82.12
2023-04-17T03:07:36.374Z,82.09
2023-04-17T03:08:08.724Z,81.69
2023-04-17T03:08:49.301Z,82.11
2023-04-17T03:09:25.115Z,82.13
2023-04-17T03:09:57.779Z,81.92
2023-04-17T03:10:32.698Z,81.76
2023-04-17T03:11:08.304Z,82.26
2023-04-17T03:11:40.651Z,82.18
2023-04-17T03:12:12.902Z,82.02
2023-04-17T03:12:47.912Z,82.27
2023-04-17T03:13:20.192Z,81.77
2023-04-17T03:13:52.372Z,82.40
2023-04-17T03:14:27.220Z,82.13
2023-04-17T03:14:59.411Z,82.34
2023-04-17T03:15:31.725Z,82.13
2023-04-17T03:16:07.611Z,82.03
2023-04-17T03:16:42.773Z,82.48
2023-04-17T03:17:16.972Z,82.03
2023-04-17T03:17:52.976Z,82.08
2023-04-17T03:18:25.412Z,81.91
2023-04-17T03:18:57.694Z,82.26
2023-04-17T03:19:32.505Z,82.02
2023-04-17T03:20:07.725Z,81.97
2023-04-17T03:20:40.157Z,81.80
2023-04-17T03:21:15.080Z,81.96
2023-04-17T03:21:47.488Z,82.13
2023-04-17T03:22:19.703Z,82.03
2023-04-17T03:22:55.927Z,81.50
2023-04-17T03:23:28.145Z,81.54
2023-04-17T03:24:00.363Z,81.80
2023-04-17T03:24:33.170Z,82.03
2023-04-17T03:25:10.144Z,82.03
2023-04-17T03:25:52.633Z,82.02
2023-04-17T03:26:25.689Z,81.57
2023-04-17T03:27:01.019Z,81.56
2023-04-17T03:27:36.863Z,81.94
2023-04-17T03:28:11.822Z,81.84
2023-04-17T03:28:44.452Z,81.83
2023-04-17T03:29:16.644Z,81.85
2023-04-17T03:29:51.420Z,81.46
2023-04-17T03:30:24.416Z,81.45
2023-04-17T03:30:59.705Z,81.62
2023-04-17T03:31:34.664Z,81.42
2023-04-17T03:32:07.116Z,81.44
2023-04-17T03:32:39.492Z,81.36
2023-04-17T03:33:14.298Z,81.10
2023-04-17T03:33:46.536Z,81.42
2023-04-17T03:34:19.492Z,81.19
2023-04-17T03:34:54.371Z,81.33
2023-04-17T03:35:26.580Z,81.08
2023-04-17T03:36:01.508Z,81.52
2023-04-17T03:36:36.515Z,81.00
2023-04-17T03:37:09.490Z,80.94
2023-04-17T03:37:41.803Z,80.85
2023-04-17T03:38:14.043Z,80.84
2023-04-17T03:38:49.897Z,81.08
2023-04-17T03:39:22.572Z,80.68
2023-04-17T03:39:55.807Z,80.99
2023-04-17T03:40:33.793Z,80.62
2023-04-17T03:41:08.874Z,80.73
2023-04-17T03:41:41.192Z,81.03
2023-04-17T03:42:16.692Z,80.58
2023-04-17T03:42:49.615Z,80.74
2023-04-17T03:43:21.911Z,80.73
2023-04-17T03:43:56.722Z,80.51
2023-04-17T03:44:28.976Z,80.47
2023-04-17T03:45:01.133Z,80.48
2023-04-17T03:45:34.216Z,80.68
2023-04-17T03:46:09.397Z,80.47
2023-04-17T03:46:42.622Z,80.41
2023-04-17T03:47:14.970Z,80.15
2023-04-17T03:47:50.593Z,80.11
2023-04-17T03:48:23.278Z,80.07
2023-04-17T03:48:56.367Z,80.62
2023-04-17T03:49:31.480Z,80.08
2023-04-17T03:50:05.195Z,80.25
2023-04-17T03:50:44.763Z,80.48
2023-04-17T03:51:17.843Z,80.13
2023-04-17T03:51:50.868Z,80.55
2023-04-17T03:52:28.543Z,80.22
2023-04-17T03:53:03.337Z,80.31
2023-04-17T03:53:36.756Z,80.14
2023-04-17T03:54:14.851Z,80.14
2023-04-17T03:54:49.225Z,80.18
2023-04-17T03:55:22.040Z,80.21
2023-04-17T03:55:57.498Z,80.15
2023-04-17T03:56:39.482Z,79.97
2023-04-17T03:57:14.457Z,80.15
2023-04-17T03:57:48.656Z,79.76
2023-04-17T03:58:20.930Z,79.95
2023-04-17T03:58:56.966Z,79.68
2023-04-17T03:59:30.794Z,79.83
2023-04-17T04:00:03.186Z,79.97
2023-04-17T04:00:55.587Z,79.78
2023-04-17T04:01:32.991Z,79.52
2023-04-17T04:02:18.753Z,79.71
2023-04-17T04:02:51.341Z,79.49
2023-04-17T04:03:29.303Z,79.66
2023-04-17T04:04:05.867Z,79.27
2023-04-17T04:04:38.288Z,79.64
2023-04-17T04:05:15.995Z,79.37
2023-04-17T04:05:51.354Z,79.60
2023-04-17T04:06:23.600Z,79.50
2023-04-17T04:06:58.066Z,79.53
2023-04-17T04:07:34.323Z,79.54
2023-04-17T04:08:06.617Z,79.43
2023-04-17T04:08:45.620Z,78.93
2023-04-17T04:09:20.526Z,78.92
2023-04-17T04:09:52.995Z,78.94
2023-04-17T04:10:25.318Z,79.07
2023-04-17T04:11:00.878Z,78.91
2023-04-17T04:11:42.617Z,78.68
2023-04-17T04:12:17.927Z,78.60
2023-04-17T04:12:51.376Z,78.75
2023-04-17T04:13:23.678Z,78.33
2023-04-17T04:14:05.020Z,78.46
2023-04-17T04:14:40.378Z,78.54
2023-04-17T04:15:14.341Z,78.36
2023-04-17T04:15:49.583Z,78.39
2023-04-17T04:16:24.703Z,78.02
2023-04-17T04:17:03.714Z,78.21
2023-04-17T04:17:38.525Z,78.08
2023-04-17T04:18:11.280Z,77.93
2023-04-17T04:18:43.655Z,78.39
2023-04-17T04:19:19.532Z,78.02
2023-04-17T04:19:52.468Z,77.96
2023-04-17T04:20:25.064Z,78.12
2023-04-17T04:21:07.292Z,77.58
2023-04-17T04:21:43.716Z,77.89
2023-04-17T04:22:18.788Z,77.70
2023-04-17T04:22:59.535Z,77.76
2023-04-17T04:23:34.003Z,77.53
2023-04-17T04:24:08.730Z,77.38
2023-04-17T04:24:44.742Z,77.30
2023-04-17T04:25:20.588Z,77.13
2023-04-17T04:26:08.128Z,77.30
2023-04-17T04:26:53.429Z,77.43
2023-04-17T04:27:27.822Z,77.10
2023-04-17T04:28:02.440Z,76.83
2023-04-17T04:28:39.053Z,76.79
2023-04-17T04:29:14.912Z,76.90
2023-04-17T04:30:01.973Z,77.17
2023-04-17T04:30:39.165Z,77.15
2023-04-17T04:31:19.453Z,77.17
2023-04-17T04:31:55.796Z,76.87
2023-04-17T04:32:31.028Z,77.01
2023-04-17T04:33:03.527Z,76.61
2023-04-17T04:33:38.810Z,76.83
2023-04-17T04:34:11.283Z,76.95
2023-04-17T04:34:45.168Z,76.78
2023-04-17T04:35:20.548Z,76.45
2023-04-17T04:35:56.253Z,76.77
2023-04-17T04:36:30.313Z,76.62
2023-04-17T04:37:30.132Z,76.15
2023-04-17T04:38:06.317Z,76.19
2023-04-17T04:38:39.500Z,76.18
2023-04-17T04:39:30.233Z,76.27
2023-04-17T04:40:10.670Z,76.02
2023-04-17T04:40:52.690Z,76.01
2023-04-17T04:41:27.510Z,76.26
2023-04-17T04:42:06.316Z,76.20
2023-04-17T04:42:52.301Z,75.85
2023-04-17T04:43:29.402Z,75.76
2023-04-17T04:44:01.768Z,76.15
2023-04-17T04:44:37.342Z,76.01
2023-04-17T04:45:11.121Z,75.84
2023-04-17T04:45:43.342Z,75.80
2023-04-17T04:46:18.887Z,75.63
2023-04-17T04:46:55.776Z,75.40
2023-04-17T04:47:28.310Z,75.54
2023-04-17T04:48:03.492Z,75.64
2023-04-17T04:48:36.056Z,75.51
2023-04-17T04:49:11.005Z,75.54
2023-04-17T04:49:43.392Z,75.62
2023-04-17T04:50:17.829Z,75.30
2023-04-17T04:50:50.555Z,74.90
2023-04-17T04:51:27.034Z,75.19
2023-04-17T04:51:59.887Z,75.00
2023-04-17T04:52:37.479Z,75.49
2023-04-17T04:53:19.980Z,75.56
2023-04-17T04:54:00.146Z,75.49
2023-04-17T04:54:32.628Z,75.02
2023-04-17T04:55:10.048Z,74.86
2023-04-17T04:55:49.815Z,75.24
2023-04-17T04:56:23.243Z,74.84
2023-04-17T04:56:58.372Z,74.93
2023-04-17T04:57:33.314Z,74.49
2023-04-17T04:58:07.427Z,74.56
2023-04-17T04:58:41.035Z,74.51
2023-04-17T04:59:17.072Z,74.59
2023-04-17T04:59:55.853Z,74.51
2023-04-17T05:00:42.185Z,74.58
2023-04-17T05:01:21.286Z,74.11
2023-04-17T05:01:55.198Z,74.38
2023-04-17T05:02:29.158Z,73.97
2023-04-17T05:03:01.681Z,74.02
2023-04-17T05:03:37.735Z,73.93
2023-04-17T05:04:11.382Z,73.69
2023-04-17T05:04:44.264Z,73.91
2023-04-17T05:05:16.551Z,73.96
2023-04-17T05:05:51.351Z,73.71
2023-04-17T05:06:25.300Z,73.37
2023-04-17T05:07:05.199Z,73.73
2023-04-17T05:07:41.939Z,73.49
2023-04-17T05:08:17.639Z,73.68
2023-04-17T05:09:01.142Z,73.12
2023-04-17T05:09:33.862Z,73.32
2023-04-17T05:10:07.123Z,73.37
2023-04-17T05:10:46.244Z,73.25
2023-04-17T05:11:19.700Z,73.19
2023-04-17T05:11:55.253Z,72.70
2023-04-17T05:12:27.805Z,72.58
2023-04-17T05:13:05.235Z,72.50
2023-04-17T05:13:37.800Z,72.47
2023-04-17T05:14:10.735Z,72.51
2023-04-17T05:14:48.055Z,71.96
2023-04-17T05:15:23.683Z,71.97
2023-04-17T05:15:56.079Z,72.14
2023-04-17T05:16:34.571Z,72.11
2023-04-17T05:17:07.437Z,72.26
2023-04-17T05:17:39.718Z,71.91
2023-04-17T05:18:14.840Z,71.85
2023-04-17T05:18:48.319Z,71.93
2023-04-17T05:19:24.748Z,71.92
2023-04-17T05:20:07.020Z,71.78
2023-04-17T05:20:41.669Z,71.66
2023-04-17T05:21:16.974Z,71.54
2023-04-17T05:21:50.596Z,71.47
2023-04-17T05:22:25.259Z,71.47
2023-04-17T05:23:11.100Z,71.46
2023-04-17T05:23:43.410Z,71.18
2023-04-17T05:24:16.541Z,70.95
2023-04-17T05:24:51.300Z,71.40
2023-04-17T05:25:23.862Z,71.38
2023-04-17T05:25:57.046Z,71.23
2023-04-17T05:26:32.289Z,70.92
2023-04-17T05:27:04.583Z,70.95
2023-04-17T05:27:37.010Z,70.66
2023-04-17T05:28:16.666Z,70.56
2023-04-17T05:28:49.324Z,70.46
2023-04-17T05:29:27.611Z,70.70
2023-04-17T05:30:03.662Z,70.45
2023-04-17T05:30:36.684Z,70.38
2023-04-17T05:31:19.583Z,70.65
2023-04-17T05:31:55.071Z,70.19
2023-04-17T05:32:46.659Z,70.12
2023-04-17T05:33:47.444Z,70.32
2023-04-17T05:34:19.666Z,70.00
2023-04-17T05:34:52.552Z,70.20
2023-04-17T05:35:31.384Z,70.12
2023-04-17T05:36:04.995Z,69.87
2023-04-17T05:36:43.202Z,70.14
2023-04-17T05:37:15.487Z,69.73
2023-04-17T05:37:47.908Z,69.57
2023-04-17T05:38:22.694Z,69.87
2023-04-17T05:38:54.904Z,69.73
2023-04-17T05:39:27.568Z,70.03
2023-04-17T05:40:02.733Z,69.63
2023-04-17T05:40:35.285Z,69.31
2023-04-17T05:41:08.615Z,69.25
2023-04-17T05:41:45.198Z,69.38
2023-04-17T05:42:17.468Z,69.01
2023-04-17T05:42:49.694Z,69.39
2023-04-17T05:43:27.176Z,69.09
2023-04-17T05:44:00.419Z,69.08
2023-04-17T05:44:33.115Z,69.39
2023-04-17T05:45:08.709Z,68.82
2023-04-17T05:45:41.865Z,69.09
2023-04-17T05:46:14.963Z,68.91
2023-04-17T05:46:51.468Z,68.63
2023-04-17T05:47:23.760Z,68.38
2023-04-17T05:47:55.984Z,68.62
2023-04-17T05:48:31.426Z,68.54
2023-04-17T05:49:03.771Z,68.16
2023-04-17T05:49:36.398Z,67.76
2023-04-17T05:50:11.957Z,67.56
2023-04-17T05:50:44.436Z,67.42
2023-04-17T05:51:19.408Z,67.02
2023-04-17T05:51:51.845Z,67.45
2023-04-17T05:52:24.193Z,67.29
2023-04-17T05:52:57.108Z,67.27
2023-04-17T05:53:36.252Z,67.18
2023-04-17T05:54:08.953Z,66.85
2023-04-17T05:54:42.258Z,67.10
2023-04-17T05:55:17.220Z,66.81
2023-04-17T05:55:49.582Z,66.82
2023-04-17T05:56:24.421Z,66.53
2023-04-17T05:56:56.993Z,66.26
2023-04-17T05:57:29.512Z,66.01
2023-04-17T05:58:16.891Z,66.22
2023-04-17T05:58:58.315Z,65.93
2023-04-17T05:59:30.733Z,65.67
2023-04-17T06:00:13.206Z,65.37
2023-04-17T06:00:52.614Z,64.86
2023-04-17T06:01:30.343Z,65.16
2023-04-17T06:02:03.263Z,65.01
2023-04-17T06:02:38.220Z,65.10
2023-04-17T06:03:14.073Z,64.80
2023-04-17T06:03:48.319Z,64.70
2023-04-17T06:04:27.068Z,64.63
2023-04-17T06:05:02.228Z,64.01
2023-04-17T06:05:34.706Z,63.58
2023-04-17T06:06:07.179Z,64.06
2023-04-17T06:06:41.967Z,63.45
2023-04-17T06:07:14.403Z,63.75
2023-04-17T06:07:50.416Z,63.71
2023-04-17T06:08:22.687Z,63.76
2023-04-17T06:08:55.071Z,63.65
2023-04-17T06:09:31.465Z,63.52
2023-04-17T06:10:04.090Z,63.46
2023-04-17T06:10:36.971Z,63.49
2023-04-17T06:11:12.038Z,63.36
2023-04-17T06:11:44.316Z,63.46
2023-04-17T06:12:19.999Z,63.45
2023-04-17T06:12:52.457Z,63.02
2023-04-17T06:13:24.824Z,63.21
2023-04-17T06:14:02.762Z,62.81
2023-04-17T06:14:35.042Z,62.82
2023-04-17T06:15:14.702Z,62.42
2023-04-17T06:15:47.090Z,62.36
2023-04-17T06:16:22.885Z,62.52
2023-04-17T06:16:55.353Z,61.87
2023-04-17T06:17:30.224Z,61.68
2023-04-17T06:18:02.498Z,61.19
2023-04-17T06:18:34.770Z,61.35
2023-04-17T06:19:09.716Z,60.86
2023-04-17T06:19:42.011Z,60.93
2023-04-17T06:20:14.273Z,60.54
2023-04-17T06:20:49.540Z,60.53
2023-04-17T06:21:22.604Z,60.36
2023-04-17T06:21:55.225Z,60.08
2023-04-17T06:22:30.206Z,59.43
2023-04-17T06:23:02.697Z,59.47
2023-04-17T06:23:35.028Z,59.37
2023-04-17T06:24:11.585Z,59.56
2023-04-17T06:24:49.419Z,59.48
2023-04-17T06:25:24.609Z,58.77
2023-04-17T06:25:57.048Z,59.05
2023-04-17T06:26:29.323Z,58.76
2023-04-17T06:27:04.220Z,58.84
2023-04-17T06:27:37.327Z,58.37
2023-04-17T06:28:10.524Z,58.37
2023-04-17T06:28:45.412Z,58.12
2023-04-17T06:29:20.663Z,58.20
2023-04-17T06:29:56.162Z,58.16
2023-04-17T06:30:28.493Z,57.99
2023-04-17T06:31:02.569Z,57.63
2023-04-17T06:31:37.575Z,57.30
2023-04-17T06:32:09.834Z,56.75
2023-04-17T06:32:46.353Z,57.11
2023-04-17T06:33:18.732Z,57.51
2023-04-17T06:33:53.678Z,57.31
2023-04-17T06:34:30.325Z,56.85
2023-04-17T06:35:02.533Z,57.15
2023-04-17T06:35:49.386Z,56.75
2023-04-17T06:36:33.518Z,56.78
2023-04-17T06:37:10.990Z,56.53
2023-04-17T06:37:44.074Z,56.30
2023-04-17T06:38:16.443Z,56.40
2023-04-17T06:38:52.085Z,56.15
2023-04-17T06:39:26.190Z,56.07
2023-04-17T06:39:58.481Z,55.88
2023-04-17T06:40:33.264Z,55.67
2023-04-17T06:41:05.704Z,55.62
2023-04-17T06:41:37.950Z,55.64
2023-04-17T06:42:12.826Z,55.31
2023-04-17T06:42:45.628Z,55.02
2023-04-17T06:43:23.696Z,55.32
2023-04-17T06:44:00.843Z,55.48
2023-04-17T06:44:51.098Z,55.79
2023-04-17T06:45:25.899Z,55.11
2023-04-17T06:45:58.208Z,55.01
2023-04-17T06:46:30.601Z,55.22
2023-04-17T06:47:06.297Z,55.25
2023-04-17T06:47:38.716Z,55.16
2023-04-17T06:48:11.789Z,55.46
2023-04-17T06:48:47.250Z,55.70
2023-04-17T06:49:19.632Z,55.76
2023-04-17T06:49:54.447Z,55.64
2023-04-17T06:50:26.787Z,55.75
2023-04-17T06:50:59.084Z,55.79
2023-04-17T06:51:33.814Z,55.38
2023-04-17T06:52:06.143Z,55.77
2023-04-17T06:52:38.415Z,56.30
2023-04-17T06:53:13.237Z,55.49
2023-04-17T06:53:45.681Z,55.24
2023-04-17T06:54:20.675Z,55.34
2023-04-17T06:54:54.497Z,55.87
2023-04-17T06:55:29.528Z,55.81
2023-04-17T06:56:01.741Z,55.89
2023-04-17T06:56:34.044Z,55.58
2023-04-17T06:57:10.882Z,55.89
2023-04-17T06:57:43.147Z,55.86
2023-04-17T06:58:15.433Z,55.64
2023-04-17T06:58:50.283Z,55.63
2023-04-17T06:59:22.556Z,55.30
2023-04-17T06:59:57.328Z,55.58
2023-04-17T07:00:32.130Z,55.72
2023-04-17T07:01:04.354Z,55.79
2023-04-17T07:01:38.447Z,55.23
2023-04-17T07:02:13.581Z,55.71
2023-04-17T07:02:46.074Z,55.53
2023-04-17T07:03:18.532Z,55.52
2023-04-17T07:03:53.513Z,55.67
2023-04-17T07:04:25.751Z,56.48
2023-04-17T07:04:58.223Z,56.16
2023-04-17T07:05:33.157Z,56.55
2023-04-17T07:06:06.145Z,56.15
2023-04-17T07:06:41.111Z,55.89
2023-04-17T07:07:13.387Z,55.64
2023-04-17T07:07:48.172Z,55.85
2023-04-17T07:08:22.635Z,55.93
2023-04-17T07:08:57.465Z,55.52
2023-04-17T07:09:29.639Z,55.34
2023-04-17T07:10:01.942Z,54.97
2023-04-17T07:10:36.960Z,54.58
2023-04-17T07:11:09.181Z,54.75
2023-04-17T07:11:43.912Z,54.42
2023-04-17T07:12:16.136Z,54.24
2023-04-17T07:12:48.329Z,53.79
2023-04-17T07:13:23.112Z,53.38
2023-04-17T07:13:55.318Z,53.91
2023-04-17T07:14:30.311Z,53.57
2023-04-17T07:15:05.808Z,53.28
2023-04-17T07:15:38.167Z,53.71
2023-04-17T07:16:13.201Z,53.53
2023-04-17T07:16:45.713Z,52.74
2023-04-17T07:17:18.195Z,52.91
2023-04-17T07:17:53.189Z,53.03
2023-04-17T07:18:26.995Z,52.70
2023-04-17T07:19:01.854Z,52.89
2023-04-17T07:19:34.212Z,53.25
2023-04-17T07:20:10.922Z,52.95
2023-04-17T07:20:43.109Z,53.06
2023-04-17T07:21:15.646Z,53.04
2023-04-17T07:21:50.791Z,53.02
2023-04-17T07:22:23.992Z,53.10
2023-04-17T07:23:00.141Z,53.18
2023-04-17T07:23:32.373Z,52.78
2023-04-17T07:24:07.329Z,52.80
2023-04-17T07:24:39.700Z,52.77